sensor_id;sensor_type;location;lat;lon;timestamp;pressure;altitude;pressure_sealevel;temperature;humidity
10145;BME280;5113;41.822;23.564;2024-01-16T00:02:43;-11131.25;;;7.12;61.62
10145;BME280;5113;41.822;23.564;2024-01-16T00:05:49;-11111.31;;;6.40;62.83
10145;BME280;5113;41.822;23.564;2024-01-16T00:08:56;-11107.69;;;6.27;63.99
10145;BME280;5113;41.822;23.564;2024-01-16T00:12:03;-11106.28;;;6.22;63.50
10145;BME280;5113;41.822;23.564;2024-01-16T00:15:10;-11105.72;;;6.20;64.48
10145;BME280;5113;41.822;23.564;2024-01-16T00:18:18;-11104.59;;;6.16;63.97
10145;BME280;5113;41.822;23.564;2024-01-16T00:21:25;-11093.50;;;5.76;65.52
10145;BME280;5113;41.822;23.564;2024-01-16T00:24:32;-11094.31;;;5.79;65.70
10145;BME280;5113;41.822;23.564;2024-01-16T00:27:39;-11115.81;;;6.56;64.00
10145;BME280;5113;41.822;23.564;2024-01-16T00:30:47;-11097.56;;;5.90;64.98
10145;BME280;5113;41.822;23.564;2024-01-16T00:33:55;-11100.66;;;6.02;66.29
10145;BME280;5113;41.822;23.564;2024-01-16T00:37:02;-11117.22;;;6.61;63.64
10145;BME280;5113;41.822;23.564;2024-01-16T00:40:09;-11104.59;;;6.16;64.99
10145;BME280;5113;41.822;23.564;2024-01-16T00:43:16;-11097.13;;;5.89;65.66
10145;BME280;5113;41.822;23.564;2024-01-16T00:46:23;-11099.25;;;5.96;65.47
10145;BME280;5113;41.822;23.564;2024-01-16T00:49:31;-11105.44;;;6.19;65.82
10145;BME280;5113;41.822;23.564;2024-01-16T00:52:38;-11102.75;;;6.09;64.46
10145;BME280;5113;41.822;23.564;2024-01-16T00:55:44;-11111.59;;;6.41;64.35
10145;BME280;5113;41.822;23.564;2024-01-16T00:58:52;-11116.38;;;6.58;63.33
10145;BME280;5113;41.822;23.564;2024-01-16T01:01:59;-11113.44;;;6.48;64.00
10145;BME280;5113;41.822;23.564;2024-01-16T01:05:07;-11126.22;;;6.94;62.60
10145;BME280;5113;41.822;23.564;2024-01-16T01:08:14;-11105.84;;;6.20;65.35
10145;BME280;5113;41.822;23.564;2024-01-16T01:11:21;-11100.38;;;6.01;66.07
10145;BME280;5113;41.822;23.564;2024-01-16T01:14:27;-11096.56;;;5.87;65.60
10145;BME280;5113;41.822;23.564;2024-01-16T01:17:36;-11113.28;;;6.47;64.22
10145;BME280;5113;41.822;23.564;2024-01-16T01:20:43;-11124.66;;;6.88;62.95
10145;BME280;5113;41.822;23.564;2024-01-16T01:23:50;-11116.66;;;6.59;63.11
10145;BME280;5113;41.822;23.564;2024-01-16T01:26:57;-11117.94;;;6.64;62.97
10145;BME280;5113;41.822;23.564;2024-01-16T01:30:04;-11117.50;;;6.62;63.17
10145;BME280;5113;41.822;23.564;2024-01-16T01:33:10;-11113.00;;;6.46;63.58
10145;BME280;5113;41.822;23.564;2024-01-16T01:36:19;-11123.97;;;6.86;62.61
10145;BME280;5113;41.822;23.564;2024-01-16T01:39:25;-11102.06;;;6.07;65.08
10145;BME280;5113;41.822;23.564;2024-01-16T01:42:31;-11087.88;;;5.55;67.30
10145;BME280;5113;41.822;23.564;2024-01-16T01:45:38;-11109.34;;;6.33;64.28
10145;BME280;5113;41.822;23.564;2024-01-16T01:48:46;-11115.53;;;6.55;63.86
10145;BME280;5113;41.822;23.564;2024-01-16T01:51:55;-11114.13;;;6.50;63.10
10145;BME280;5113;41.822;23.564;2024-01-16T01:55:02;-11113.84;;;6.49;63.60
10145;BME280;5113;41.822;23.564;2024-01-16T01:58:11;-11113.84;;;6.49;63.63
10145;BME280;5113;41.822;23.564;2024-01-16T02:01:18;-11106.97;;;6.24;63.72
10145;BME280;5113;41.822;23.564;2024-01-16T02:04:26;-11103.31;;;6.11;64.68
10145;BME280;5113;41.822;23.564;2024-01-16T02:07:35;-11106.84;;;6.24;64.32
10145;BME280;5113;41.822;23.564;2024-01-16T02:10:42;-11111.31;;;6.40;64.00
10145;BME280;5113;41.822;23.564;2024-01-16T02:13:52;-11107.97;;;6.28;64.37
10145;BME280;5113;41.822;23.564;2024-01-16T02:16:59;-11114.97;;;6.53;62.86
10145;BME280;5113;41.822;23.564;2024-01-16T02:20:06;-11110.47;;;6.37;63.24
10145;BME280;5113;41.822;23.564;2024-01-16T02:23:15;-11125.38;;;6.91;62.03
10145;BME280;5113;41.822;23.564;2024-01-16T02:26:23;-11115.41;;;6.55;62.60
10145;BME280;5113;41.822;23.564;2024-01-16T02:29:29;-11116.94;;;6.60;62.36
10145;BME280;5113;41.822;23.564;2024-01-16T02:32:36;-11129.72;;;7.07;61.61
10145;BME280;5113;41.822;23.564;2024-01-16T02:35:43;-11120.31;;;6.73;62.38
10145;BME280;5113;41.822;23.564;2024-01-16T02:38:50;-11119.03;;;6.68;62.50
10145;BME280;5113;41.822;23.564;2024-01-16T02:41:58;-11095.31;;;5.82;65.08
10145;BME280;5113;41.822;23.564;2024-01-16T02:45:05;-11112.88;;;6.46;63.83
10145;BME280;5113;41.822;23.564;2024-01-16T02:48:12;-11102.62;;;6.09;64.36
10145;BME280;5113;41.822;23.564;2024-01-16T02:51:19;-11117.09;;;6.61;62.87
10145;BME280;5113;41.822;23.564;2024-01-16T02:54:25;-11103.03;;;6.10;63.54
10145;BME280;5113;41.822;23.564;2024-01-16T02:57:34;-11105.16;;;6.18;64.46
10145;BME280;5113;41.822;23.564;2024-01-16T03:00:40;-11100.78;;;6.02;64.35
10145;BME280;5113;41.822;23.564;2024-01-16T03:03:48;-11097.84;;;5.91;64.97
10145;BME280;5113;41.822;23.564;2024-01-16T03:06:54;-11103.19;;;6.11;65.12
10145;BME280;5113;41.822;23.564;2024-01-16T03:10:01;-11124.66;;;6.88;62.84
10145;BME280;5113;41.822;23.564;2024-01-16T03:13:09;-11122.13;;;6.79;62.96
10145;BME280;5113;41.822;23.564;2024-01-16T03:16:16;-11114.97;;;6.53;63.16
10145;BME280;5113;41.822;23.564;2024-01-16T03:19:22;-11108.94;;;6.32;64.34
10145;BME280;5113;41.822;23.564;2024-01-16T03:22:29;-11110.47;;;6.37;63.99
10145;BME280;5113;41.822;23.564;2024-01-16T03:25:36;-11108.78;;;6.31;64.53
10145;BME280;5113;41.822;23.564;2024-01-16T03:28:45;-11111.03;;;6.39;64.41
10145;BME280;5113;41.822;23.564;2024-01-16T03:31:51;-11119.75;;;6.71;63.49
10145;BME280;5113;41.822;23.564;2024-01-16T03:34:58;-11122.28;;;6.80;62.64
10145;BME280;5113;41.822;23.564;2024-01-16T03:38:05;-11124.81;;;6.89;62.91
10145;BME280;5113;41.822;23.564;2024-01-16T03:41:12;-11113.16;;;6.47;64.07
10145;BME280;5113;41.822;23.564;2024-01-16T03:44:20;-11107.69;;;6.27;64.26
10145;BME280;5113;41.822;23.564;2024-01-16T03:47:27;-11118.91;;;6.68;63.51
10145;BME280;5113;41.822;23.564;2024-01-16T03:50:34;-11107.41;;;6.26;65.58
10145;BME280;5113;41.822;23.564;2024-01-16T03:53:41;-11110.91;;;6.39;64.38
10145;BME280;5113;41.822;23.564;2024-01-16T03:56:48;-11111.59;;;6.41;65.07
10145;BME280;5113;41.822;23.564;2024-01-16T03:59:57;-11115.13;;;6.54;64.21
10145;BME280;5113;41.822;23.564;2024-01-16T04:03:03;-11118.47;;;6.66;64.10
10145;BME280;5113;41.822;23.564;2024-01-16T04:06:16;-11133.50;;;7.20;63.97
10145;BME280;5113;41.822;23.564;2024-01-16T04:09:23;-11138.00;;;7.37;62.09
10145;BME280;5113;41.822;23.564;2024-01-16T04:12:31;-11102.62;;;6.09;68.04
10145;BME280;5113;41.822;23.564;2024-01-16T04:15:39;-11125.22;;;6.90;65.51
10145;BME280;5113;41.822;23.564;2024-01-16T04:18:47;-11115.81;;;6.56;65.46
10145;BME280;5113;41.822;23.564;2024-01-16T04:21:53;-11120.88;;;6.75;65.70
10145;BME280;5113;41.822;23.564;2024-01-16T04:25:00;-11122.56;;;6.81;65.33
10145;BME280;5113;41.822;23.564;2024-01-16T04:28:09;-11125.94;;;6.93;64.67
10145;BME280;5113;41.822;23.564;2024-01-16T04:31:17;-11124.81;;;6.89;65.63
10145;BME280;5113;41.822;23.564;2024-01-16T04:34:24;-11112.44;;;6.44;67.48
10145;BME280;5113;41.822;23.564;2024-01-16T04:37:30;-11125.22;;;6.90;67.06
10145;BME280;5113;41.822;23.564;2024-01-16T04:40:37;-11131.13;;;7.12;65.40
10145;BME280;5113;41.822;23.564;2024-01-16T04:43:44;-11110.63;;;6.38;68.33
10145;BME280;5113;41.822;23.564;2024-01-16T04:46:52;-11134.34;;;7.23;65.87
10145;BME280;5113;41.822;23.564;2024-01-16T04:49:58;-11127.19;;;6.97;65.80
10145;BME280;5113;41.822;23.564;2024-01-16T04:53:04;-11120.72;;;6.74;67.11
10145;BME280;5113;41.822;23.564;2024-01-16T04:56:11;-11119.19;;;6.69;67.30
10145;BME280;5113;41.822;23.564;2024-01-16T04:59:18;-11130.13;;;7.08;66.75
10145;BME280;5113;41.822;23.564;2024-01-16T05:02:26;-11116.09;;;6.57;69.03
10145;BME280;5113;41.822;23.564;2024-01-16T05:05:32;-11114.97;;;6.53;68.65
10145;BME280;5113;41.822;23.564;2024-01-16T05:08:39;-11118.63;;;6.67;69.03
10145;BME280;5113;41.822;23.564;2024-01-16T05:11:46;-11112.16;;;6.43;70.54
10145;BME280;5113;41.822;23.564;2024-01-16T05:14:53;-11118.34;;;6.66;69.54
10145;BME280;5113;41.822;23.564;2024-01-16T05:18:01;-11121.16;;;6.76;69.36
10145;BME280;5113;41.822;23.564;2024-01-16T05:21:09;-11117.38;;;6.62;70.13
10145;BME280;5113;41.822;23.564;2024-01-16T05:24:16;-11104.03;;;6.14;71.55
10145;BME280;5113;41.822;23.564;2024-01-16T05:27:23;-11111.19;;;6.40;71.04
10145;BME280;5113;41.822;23.564;2024-01-16T05:30:30;-11090.25;;;5.64;75.53
10145;BME280;5113;41.822;23.564;2024-01-16T05:33:40;-11106.84;;;6.24;72.24
10145;BME280;5113;41.822;23.564;2024-01-16T05:36:46;-11095.03;;;5.81;75.77
10145;BME280;5113;41.822;23.564;2024-01-16T05:39:53;-11094.75;;;5.80;75.24
10145;BME280;5113;41.822;23.564;2024-01-16T05:42:59;-11091.38;;;5.68;76.53
10145;BME280;5113;41.822;23.564;2024-01-16T05:46:06;-11112.03;;;6.43;72.99
10145;BME280;5113;41.822;23.564;2024-01-16T05:49:14;-11109.63;;;6.34;73.76
10145;BME280;5113;41.822;23.564;2024-01-16T05:52:22;-11103.31;;;6.11;75.02
10145;BME280;5113;41.822;23.564;2024-01-16T05:55:28;-11117.09;;;6.61;71.67
10145;BME280;5113;41.822;23.564;2024-01-16T05:58:37;-11114.41;;;6.51;70.52
10145;BME280;5113;41.822;23.564;2024-01-16T06:01:44;-11098.81;;;5.95;75.15
10145;BME280;5113;41.822;23.564;2024-01-16T06:04:52;-11114.69;;;6.52;73.16
10145;BME280;5113;41.822;23.564;2024-01-16T06:07:59;-11102.06;;;6.07;75.21
10145;BME280;5113;41.822;23.564;2024-01-16T06:11:06;-11108.22;;;6.29;71.83
10145;BME280;5113;41.822;23.564;2024-01-16T06:14:14;-11099.53;;;5.97;73.08
10145;BME280;5113;41.822;23.564;2024-01-16T06:17:27;-11082.94;;;5.38;80.45
10145;BME280;5113;41.822;23.564;2024-01-16T06:20:34;-11067.09;;;4.80;84.01
10145;BME280;5113;41.822;23.564;2024-01-16T06:23:41;-11096.44;;;5.86;77.59
10145;BME280;5113;41.822;23.564;2024-01-16T06:26:47;-11087.16;;;5.53;80.82
10145;BME280;5113;41.822;23.564;2024-01-16T06:29:54;-11099.94;;;5.99;77.74
10145;BME280;5113;41.822;23.564;2024-01-16T06:33:00;-11122.28;;;6.80;71.39
10145;BME280;5113;41.822;23.564;2024-01-16T06:36:09;-11107.97;;;6.28;74.48
10145;BME280;5113;41.822;23.564;2024-01-16T06:39:15;-11101.78;;;6.06;74.25
10145;BME280;5113;41.822;23.564;2024-01-16T06:42:22;-11113.28;;;6.47;71.74
10145;BME280;5113;41.822;23.564;2024-01-16T06:45:29;-11115.53;;;6.55;71.11
10145;BME280;5113;41.822;23.564;2024-01-16T06:48:36;-11101.50;;;6.05;73.96
10145;BME280;5113;41.822;23.564;2024-01-16T06:51:45;-11098.97;;;5.95;76.61
10145;BME280;5113;41.822;23.564;2024-01-16T06:54:52;-11111.03;;;6.39;71.76
10145;BME280;5113;41.822;23.564;2024-01-16T06:57:58;-11112.16;;;6.43;71.96
10145;BME280;5113;41.822;23.564;2024-01-16T07:01:05;-11108.94;;;6.32;72.10
10145;BME280;5113;41.822;23.564;2024-01-16T07:04:13;-11124.66;;;6.88;70.98
10145;BME280;5113;41.822;23.564;2024-01-16T07:07:21;-11121.16;;;6.76;71.53
10145;BME280;5113;41.822;23.564;2024-01-16T07:10:29;-11116.94;;;6.60;74.72
10145;BME280;5113;41.822;23.564;2024-01-16T07:13:36;-11114.97;;;6.53;75.42
10145;BME280;5113;41.822;23.564;2024-01-16T07:16:43;-11131.81;;;7.14;72.39
10145;BME280;5113;41.822;23.564;2024-01-16T07:19:49;-11120.88;;;6.75;73.00
10145;BME280;5113;41.822;23.564;2024-01-16T07:22:58;-11136.88;;;7.33;72.76
10145;BME280;5113;41.822;23.564;2024-01-16T07:26:05;-11126.22;;;6.94;74.70
10145;BME280;5113;41.822;23.564;2024-01-16T07:29:12;-11136.19;;;7.30;71.46
10145;BME280;5113;41.822;23.564;2024-01-16T07:32:19;-11116.09;;;6.57;74.52
10145;BME280;5113;41.822;23.564;2024-01-16T07:35:25;-11118.34;;;6.66;77.24
10145;BME280;5113;41.822;23.564;2024-01-16T07:38:33;-11120.31;;;6.73;77.18
10145;BME280;5113;41.822;23.564;2024-01-16T07:41:42;-11120.03;;;6.72;78.93
10145;BME280;5113;41.822;23.564;2024-01-16T07:44:48;-11098.53;;;5.94;80.93
10145;BME280;5113;41.822;23.564;2024-01-16T07:47:56;-11121.72;;;6.78;81.80
10145;BME280;5113;41.822;23.564;2024-01-16T07:51:03;-11158.81;;;8.12;70.56
10145;BME280;5113;41.822;23.564;2024-01-16T07:54:12;-11161.19;;;8.20;70.71
10145;BME280;5113;41.822;23.564;2024-01-16T07:57:19;-11138.28;;;7.38;70.84
10145;BME280;5113;41.822;23.564;2024-01-16T08:00:25;-11121.44;;;6.77;76.37
10145;BME280;5113;41.822;23.564;2024-01-16T08:03:32;-11124.38;;;6.87;77.06
10145;BME280;5113;41.822;23.564;2024-01-16T08:06:38;-11131.81;;;7.14;79.01
10145;BME280;5113;41.822;23.564;2024-01-16T08:09:46;-11134.91;;;7.25;79.63
10145;BME280;5113;41.822;23.564;2024-01-16T08:12:53;-11119.59;;;6.70;83.15
10145;BME280;5113;41.822;23.564;2024-01-16T08:16:00;-11161.19;;;8.20;76.15
10145;BME280;5113;41.822;23.564;2024-01-16T08:19:07;-11154.03;;;7.94;81.97
10145;BME280;5113;41.822;23.564;2024-01-16T08:22:14;-11191.41;;;9.30;74.82
10145;BME280;5113;41.822;23.564;2024-01-16T08:25:22;-11182.13;;;8.96;76.91
10145;BME280;5113;41.822;23.564;2024-01-16T08:28:29;-11187.91;;;9.17;75.51
10145;BME280;5113;41.822;23.564;2024-01-16T08:31:35;-11199.00;;;9.57;72.65
10145;BME280;5113;41.822;23.564;2024-01-16T08:34:42;-11206.59;;;9.84;73.35
10145;BME280;5113;41.822;23.564;2024-01-16T08:37:48;-11182.69;;;8.98;75.98
10145;BME280;5113;41.822;23.564;2024-01-16T08:40:57;-11181.16;;;8.92;80.14
10145;BME280;5113;41.822;23.564;2024-01-16T08:44:04;-11177.78;;;8.80;79.93
10145;BME280;5113;41.822;23.564;2024-01-16T08:47:10;-11175.09;;;8.71;76.39
10145;BME280;5113;41.822;23.564;2024-01-16T08:50:17;-11152.75;;;7.90;82.80
10145;BME280;5113;41.822;23.564;2024-01-16T08:53:24;-11190.00;;;9.24;78.00
10145;BME280;5113;41.822;23.564;2024-01-16T08:56:32;-11190.28;;;9.25;75.15
10145;BME280;5113;41.822;23.564;2024-01-16T08:59:39;-11193.81;;;9.38;73.75
10145;BME280;5113;41.822;23.564;2024-01-16T09:02:46;-11169.78;;;8.51;76.35
10145;BME280;5113;41.822;23.564;2024-01-16T09:05:54;-11183.25;;;9.00;73.93
10145;BME280;5113;41.822;23.564;2024-01-16T09:09:01;-11189.72;;;9.23;73.16
10145;BME280;5113;41.822;23.564;2024-01-16T09:12:11;-11164.28;;;8.32;77.51
10145;BME280;5113;41.822;23.564;2024-01-16T09:15:18;-11183.81;;;9.02;72.81
10145;BME280;5113;41.822;23.564;2024-01-16T09:18:25;-11176.78;;;8.77;71.22
10145;BME280;5113;41.822;23.564;2024-01-16T09:21:32;-11169.22;;;8.49;69.87
10145;BME280;5113;41.822;23.564;2024-01-16T09:24:39;-11159.38;;;8.14;68.96
10145;BME280;5113;41.822;23.564;2024-01-16T09:27:47;-11180.16;;;8.89;67.32
10145;BME280;5113;41.822;23.564;2024-01-16T09:30:54;-11189.16;;;9.21;66.13
10145;BME280;5113;41.822;23.564;2024-01-16T09:34:02;-11163.03;;;8.27;66.11
10145;BME280;5113;41.822;23.564;2024-01-16T09:37:14;-11175.09;;;8.71;64.99
10145;BME280;5113;41.822;23.564;2024-01-16T09:40:20;-11191.28;;;9.29;64.19
10145;BME280;5113;41.822;23.564;2024-01-16T09:43:30;-11210.53;;;9.99;62.75
10145;BME280;5113;41.822;23.564;2024-01-16T09:46:40;-11172.59;;;8.62;64.05
10145;BME280;5113;41.822;23.564;2024-01-16T09:49:52;-11190.84;;;9.27;63.65
10145;BME280;5113;41.822;23.564;2024-01-16T09:53:01;-11155.28;;;7.99;62.95
10145;BME280;5113;41.822;23.564;2024-01-16T09:56:13;-11189.72;;;9.23;62.05
10145;BME280;5113;41.822;23.564;2024-01-16T09:59:24;-11176.22;;;8.75;62.57
10145;BME280;5113;41.822;23.564;2024-01-16T10:02:33;-11161.63;;;8.22;61.59
10145;BME280;5113;41.822;23.564;2024-01-16T10:05:40;-11185.38;;;9.08;60.43
10145;BME280;5113;41.822;23.564;2024-01-16T10:08:48;-11164.16;;;8.31;59.22
10145;BME280;5113;41.822;23.564;2024-01-16T10:11:55;-11182.97;;;8.99;60.21
10145;BME280;5113;41.822;23.564;2024-01-16T10:15:05;-11169.34;;;8.50;60.12
10145;BME280;5113;41.822;23.564;2024-01-16T10:18:22;-11194.38;;;9.40;58.64
10145;BME280;5113;41.822;23.564;2024-01-16T10:21:30;-11173.16;;;8.64;59.91
10145;BME280;5113;41.822;23.564;2024-01-16T10:24:37;-11188.31;;;9.18;58.22
10145;BME280;5113;41.822;23.564;2024-01-16T10:27:43;-11175.09;;;8.71;57.98
10145;BME280;5113;41.822;23.564;2024-01-16T10:31:01;-11176.94;;;8.77;58.68
10145;BME280;5113;41.822;23.564;2024-01-16T10:34:19;-11195.06;;;9.43;57.60
10145;BME280;5113;41.822;23.564;2024-01-16T10:37:27;-11156.84;;;8.05;59.15
10145;BME280;5113;41.822;23.564;2024-01-16T10:40:33;-11149.81;;;7.79;59.16
10145;BME280;5113;41.822;23.564;2024-01-16T10:43:40;-11191.13;;;9.28;57.16
10145;BME280;5113;41.822;23.564;2024-01-16T10:46:48;-11189.44;;;9.22;57.30
10145;BME280;5113;41.822;23.564;2024-01-16T10:49:54;-11188.88;;;9.20;57.11
10145;BME280;5113;41.822;23.564;2024-01-16T10:53:04;-11185.66;;;9.09;56.92
10145;BME280;5113;41.822;23.564;2024-01-16T10:56:12;-11187.19;;;9.14;56.47
10145;BME280;5113;41.822;23.564;2024-01-16T10:59:25;-11173.00;;;8.63;55.95
10145;BME280;5113;41.822;23.564;2024-01-16T11:02:37;-11197.59;;;9.52;55.34
10145;BME280;5113;41.822;23.564;2024-01-16T11:05:46;-11190.56;;;9.26;55.20
10145;BME280;5113;41.822;23.564;2024-01-16T11:08:56;-11181.00;;;8.92;55.04
10145;BME280;5113;41.822;23.564;2024-01-16T11:12:06;-11174.53;;;8.69;55.70
10145;BME280;5113;41.822;23.564;2024-01-16T11:15:14;-11191.00;;;9.28;54.55
10145;BME280;5113;41.822;23.564;2024-01-16T11:18:23;-11199.16;;;9.57;54.21
10145;BME280;5113;41.822;23.564;2024-01-16T11:21:31;-11195.91;;;9.46;53.31
10145;BME280;5113;41.822;23.564;2024-01-16T11:24:38;-11184.66;;;9.05;54.66
10145;BME280;5113;41.822;23.564;2024-01-16T11:27:46;-11203.78;;;9.74;52.44
10145;BME280;5113;41.822;23.564;2024-01-16T11:30:56;-11209.97;;;9.97;52.07
10145;BME280;5113;41.822;23.564;2024-01-16T11:34:04;-11176.38;;;8.75;53.04
10145;BME280;5113;41.822;23.564;2024-01-16T11:37:11;-11183.97;;;9.03;52.73
10145;BME280;5113;41.822;23.564;2024-01-16T11:40:25;-11185.94;;;9.10;53.40
10145;BME280;5113;41.822;23.564;2024-01-16T11:43:36;-11192.13;;;9.32;52.52
10145;BME280;5113;41.822;23.564;2024-01-16T11:47:01;-11198.16;;;9.54;51.83
10145;BME280;5113;41.822;23.564;2024-01-16T11:50:11;-11199.56;;;9.59;51.87
10145;BME280;5113;41.822;23.564;2024-01-16T11:53:37;-11222.34;;;10.41;50.48
10145;BME280;5113;41.822;23.564;2024-01-16T12:00:35;-11211.38;;;10.02;50.68
10145;BME280;5113;41.822;23.564;2024-01-16T12:03:57;-11210.25;;;9.98;49.87
10145;BME280;5113;41.822;23.564;2024-01-16T12:07:09;-11226.00;;;10.54;49.19
10145;BME280;5113;41.822;23.564;2024-01-16T12:10:16;-11214.47;;;10.13;50.21
10145;BME280;5113;41.822;23.564;2024-01-16T12:13:24;-11236.72;;;10.93;48.91
10145;BME280;5113;41.822;23.564;2024-01-16T12:16:31;-11225.59;;;10.53;49.28
10145;BME280;5113;41.822;23.564;2024-01-16T12:19:38;-11233.03;;;10.80;48.65
10145;BME280;5113;41.822;23.564;2024-01-16T12:22:54;-11237.56;;;10.96;49.11
10145;BME280;5113;41.822;23.564;2024-01-16T12:26:01;-11251.19;;;11.45;47.98
10145;BME280;5113;41.822;23.564;2024-01-16T12:29:09;-11250.91;;;11.44;48.43
10145;BME280;5113;41.822;23.564;2024-01-16T12:32:16;-11228.81;;;10.65;49.45
10145;BME280;5113;41.822;23.564;2024-01-16T12:35:23;-11238.25;;;10.99;47.64
10145;BME280;5113;41.822;23.564;2024-01-16T12:38:31;-11218.84;;;10.29;49.29
10145;BME280;5113;41.822;23.564;2024-01-16T12:41:41;-11238.38;;;10.99;47.63
10145;BME280;5113;41.822;23.564;2024-01-16T12:44:48;-11210.69;;;9.99;48.83
10145;BME280;5113;41.822;23.564;2024-01-16T12:47:55;-11218.13;;;10.26;48.15
10145;BME280;5113;41.822;23.564;2024-01-16T12:51:04;-11239.22;;;11.02;47.26
10145;BME280;5113;41.822;23.564;2024-01-16T12:54:15;-11222.34;;;10.41;48.77
10145;BME280;5113;41.822;23.564;2024-01-16T12:57:22;-11228.53;;;10.64;48.45
10145;BME280;5113;41.822;23.564;2024-01-16T13:00:29;-11227.97;;;10.62;49.08
10145;BME280;5113;41.822;23.564;2024-01-16T13:03:36;-11220.66;;;10.35;49.08
10145;BME280;5113;41.822;23.564;2024-01-16T13:06:43;-11211.66;;;10.03;49.32
10145;BME280;5113;41.822;23.564;2024-01-16T13:10:08;-11201.81;;;9.67;49.94
10145;BME280;5113;41.822;23.564;2024-01-16T13:13:18;-11194.78;;;9.42;50.40
10145;BME280;5113;41.822;23.564;2024-01-16T13:16:24;-11225.88;;;10.54;47.90
10145;BME280;5113;41.822;23.564;2024-01-16T13:19:34;-11237.28;;;10.95;48.15
10145;BME280;5113;41.822;23.564;2024-01-16T13:22:41;-11211.81;;;10.03;48.58
10145;BME280;5113;41.822;23.564;2024-01-16T13:25:54;-11197.59;;;9.52;49.05
10145;BME280;5113;41.822;23.564;2024-01-16T13:29:02;-11192.97;;;9.35;48.95
10145;BME280;5113;41.822;23.564;2024-01-16T13:32:08;-11195.34;;;9.44;48.75
10145;BME280;5113;41.822;23.564;2024-01-16T13:35:15;-11201.13;;;9.65;49.19
10145;BME280;5113;41.822;23.564;2024-01-16T13:38:22;-11202.94;;;9.71;50.28
10145;BME280;5113;41.822;23.564;2024-01-16T13:41:30;-11212.78;;;10.07;49.16
10145;BME280;5113;41.822;23.564;2024-01-16T13:44:37;-11215.59;;;10.17;48.07
10145;BME280;5113;41.822;23.564;2024-01-16T13:47:43;-11210.25;;;9.98;48.88
10145;BME280;5113;41.822;23.564;2024-01-16T13:50:50;-11218.13;;;10.26;47.94
10145;BME280;5113;41.822;23.564;2024-01-16T13:53:57;-11211.94;;;10.04;48.94
10145;BME280;5113;41.822;23.564;2024-01-16T13:57:06;-11213.78;;;10.10;49.57
10145;BME280;5113;41.822;23.564;2024-01-16T14:00:16;-11212.09;;;10.04;48.69
10145;BME280;5113;41.822;23.564;2024-01-16T14:03:23;-11218.13;;;10.26;48.26
10145;BME280;5113;41.822;23.564;2024-01-16T14:06:32;-11199.56;;;9.59;49.22
10145;BME280;5113;41.822;23.564;2024-01-16T14:09:59;-11223.19;;;10.44;47.66
10145;BME280;5113;41.822;23.564;2024-01-16T14:13:11;-11233.03;;;10.80;47.39
10145;BME280;5113;41.822;23.564;2024-01-16T14:16:17;-11201.53;;;9.66;49.35
10145;BME280;5113;41.822;23.564;2024-01-16T14:19:41;-11192.81;;;9.35;49.78
10145;BME280;5113;41.822;23.564;2024-01-16T14:22:49;-11206.88;;;9.85;49.21
10145;BME280;5113;41.822;23.564;2024-01-16T14:25:56;-11193.81;;;9.38;50.29
10145;BME280;5113;41.822;23.564;2024-01-16T14:29:07;-11221.78;;;10.39;49.09
10145;BME280;5113;41.822;23.564;2024-01-16T14:32:14;-11205.19;;;9.79;49.81
10145;BME280;5113;41.822;23.564;2024-01-16T14:35:20;-11206.19;;;9.83;49.93
10145;BME280;5113;41.822;23.564;2024-01-16T14:38:27;-11221.94;;;10.40;49.46
10145;BME280;5113;41.822;23.564;2024-01-16T14:41:33;-11223.75;;;10.46;49.66
10145;BME280;5113;41.822;23.564;2024-01-16T14:44:42;-11200.84;;;9.64;51.01
10145;BME280;5113;41.822;23.564;2024-01-16T14:47:49;-11190.56;;;9.26;50.26
10145;BME280;5113;41.822;23.564;2024-01-16T14:50:56;-11180.59;;;8.90;51.05
10145;BME280;5113;41.822;23.564;2024-01-16T14:54:02;-11193.09;;;9.36;50.96
10145;BME280;5113;41.822;23.564;2024-01-16T14:57:09;-11216.88;;;10.21;49.91
10145;BME280;5113;41.822;23.564;2024-01-16T15:00:19;-11204.34;;;9.76;50.50
10145;BME280;5113;41.822;23.564;2024-01-16T15:03:28;-11209.56;;;9.95;49.48
10145;BME280;5113;41.822;23.564;2024-01-16T15:06:34;-11227.69;;;10.61;48.69
10145;BME280;5113;41.822;23.564;2024-01-16T15:09:41;-11211.09;;;10.01;49.71
10145;BME280;5113;41.822;23.564;2024-01-16T15:12:48;-11202.09;;;9.68;50.23
10145;BME280;5113;41.822;23.564;2024-01-16T15:15:57;-11204.22;;;9.76;50.56
10145;BME280;5113;41.822;23.564;2024-01-16T15:19:04;-11184.09;;;9.03;51.41
10145;BME280;5113;41.822;23.564;2024-01-16T15:22:11;-11151.34;;;7.85;53.21
10145;BME280;5113;41.822;23.564;2024-01-16T15:25:18;-11181.28;;;8.93;51.96
10145;BME280;5113;41.822;23.564;2024-01-16T15:28:27;-11195.91;;;9.46;50.98
10145;BME280;5113;41.822;23.564;2024-01-16T15:31:35;-11198.16;;;9.54;51.07
10145;BME280;5113;41.822;23.564;2024-01-16T15:34:41;-11194.66;;;9.41;52.20
10145;BME280;5113;41.822;23.564;2024-01-16T15:37:49;-11169.78;;;8.51;52.43
10145;BME280;5113;41.822;23.564;2024-01-16T15:40:55;-11212.09;;;10.04;50.26
10145;BME280;5113;41.822;23.564;2024-01-16T15:44:02;-11188.03;;;9.17;51.09
10145;BME280;5113;41.822;23.564;2024-01-16T15:47:17;-11190.56;;;9.26;50.05
10145;BME280;5113;41.822;23.564;2024-01-16T15:50:23;-11209.28;;;9.94;49.39
10145;BME280;5113;41.822;23.564;2024-01-16T15:53:32;-11186.50;;;9.12;50.81
10145;BME280;5113;41.822;23.564;2024-01-16T15:56:39;-11183.41;;;9.01;51.20
10145;BME280;5113;41.822;23.564;2024-01-16T15:59:45;-11208.00;;;9.89;50.08
10145;BME280;5113;41.822;23.564;2024-01-16T16:02:53;-11198.72;;;9.56;50.21
10145;BME280;5113;41.822;23.564;2024-01-16T16:06:00;-11179.03;;;8.85;51.22
10145;BME280;5113;41.822;23.564;2024-01-16T16:09:07;-11151.34;;;7.85;52.98
10145;BME280;5113;41.822;23.564;2024-01-16T16:12:15;-11163.31;;;8.28;52.07
10145;BME280;5113;41.822;23.564;2024-01-16T16:15:23;-11157.13;;;8.06;52.64
10145;BME280;5113;41.822;23.564;2024-01-16T16:18:32;-11173.16;;;8.64;52.38
10145;BME280;5113;41.822;23.564;2024-01-16T16:21:42;-11168.09;;;8.45;52.50
10145;BME280;5113;41.822;23.564;2024-01-16T16:24:49;-11149.66;;;7.79;52.69
10145;BME280;5113;41.822;23.564;2024-01-16T16:27:56;-11177.63;;;8.80;51.08
10145;BME280;5113;41.822;23.564;2024-01-16T16:31:03;-11166.97;;;8.41;51.96
10145;BME280;5113;41.822;23.564;2024-01-16T16:34:12;-11174.81;;;8.70;52.11
10145;BME280;5113;41.822;23.564;2024-01-16T16:37:21;-11168.09;;;8.45;51.60
10145;BME280;5113;41.822;23.564;2024-01-16T16:40:28;-11160.34;;;8.17;52.31